Latest Weather Observations for Parkes Airport

IDN60801

Issued at 5:35 pm EDT Sunday 26 October 2014 (issued every 30 minutes, with the page automatically refreshed every 10 minutes)

About weather observations | Map of weather stations | Latest weather observations for NSW | Other Formats
Station Details ID: 065068 Name: PARKES AIRPORT AWS Lat: -33.13 Lon: 148.24 Height: 323.3 m
Data from the previous 72 hours. | See also: Recent months at Parkes Airport
Date/Time
EDT
Temp
°C
App
Temp
°C
Dew
Point
Rel
Hum
%
Delta-T
°C
Wind Press
QNH
hPa
Press
MSL
hPa
Rain
since 9 am
mm
Dir
 
Spd
km/h
Gust
km/h
Spd
kts
Gust
kts
26/05:30pm 33.3 25.7 -2.4 10 17.0 SW 28 39 15 21 1010.4 1009.9 0.0
26/05:00pm 33.7 26.1 0.4 12 16.7 WSW 30 37 16 20 1010.3 1009.8 0.0
26/04:30pm 33.5 27.1 3.3 15 15.8 SSW 26 32 14 17 1010.2 1009.7 0.0
26/04:00pm 34.0 28.5 1.7 13 16.6 W 20 32 11 17 1010.2 1009.7 0.0
26/03:30pm 34.0 28.1 1.7 13 16.5 WSW 22 32 12 17 1010.4 1009.9 0.0
26/03:00pm 33.9 29.1 4.6 16 15.7 WSW 19 35 10 19 1010.6 1010.1 0.0
26/02:30pm 33.7 29.0 6.1 18 15.1 WSW 20 26 11 14 1011.1 1010.5 0.0
26/02:00pm 33.0 28.0 4.7 17 15.1 W 20 30 11 16 1011.5 1010.9 0.0
26/01:30pm 32.5 27.8 5.9 19 14.4 SW 20 33 11 18 1011.9 1011.3 0.0
26/01:00pm 32.7 27.4 6.8 20 14.3 SW 24 35 13 19 1012.1 1011.5 0.0
26/12:30pm 31.8 26.8 4.6 18 14.4 W 20 28 11 15 1012.3 1011.7 0.0
26/12:00pm 31.0 25.9 6.1 21 13.5 SW 22 33 12 18 1012.9 1012.4 0.0
26/11:30am 30.9 27.1 7.4 23 13.0 W 17 22 9 12 1013.2 1012.7 0.0
26/11:00am 30.3 27.3 9.2 27 12.0 WSW 15 26 8 14 1013.3 1012.8 0.0
26/10:30am 29.3 26.8 8.4 27 11.6 W 11 19 6 10 1013.4 1012.9 0.0
26/10:00am 28.4 26.0 8.7 29 11.0 SW 11 17 6 9 1013.4 1012.9 0.0
26/09:30am 27.3 26.5 8.2 30 10.5 SSW 2 9 1 5 1013.4 1012.9 0.0
26/09:00am 26.3 25.4 7.8 31 10.0 SE 2 6 1 3 1013.5 1013.0 0.0
26/08:30am 24.3 22.7 8.7 37 8.5 E 7 9 4 5 1013.3 1012.8 0.0
26/08:00am 21.0 19.3 9.9 49 6.1 ENE 9 11 5 6 1013.4 1012.9 0.0
26/07:30am 18.0 16.3 9.9 59 4.4 E 9 11 5 6 1013.5 1013.0 0.0
26/07:00am 15.6 13.2 8.8 64 3.5 ENE 11 13 6 7 1013.4 1012.9 0.0
26/06:30am 13.6 11.3 7.6 67 3.0 ENE 9 11 5 6 1013.1 1012.6 0.0
26/06:00am 14.1 11.1 7.9 66 3.1 E 13 15 7 8 1012.9 1012.4 0.0
26/05:30am 14.7 11.8 8.0 64 3.4 ENE 13 15 7 8 1012.6 1012.1 0.0
26/05:00am 15.2 12.7 8.2 63 3.6 ENE 11 11 6 6 1012.5 1011.9 0.0
26/04:30am 15.0 12.8 7.8 62 3.6 ENE 9 11 5 6 1012.3 1011.7 0.0
26/04:00am 16.8 14.9 7.4 54 4.8 NNE 7 9 4 5 1012.2 1011.6 0.0
26/03:30am 16.8 14.9 7.7 55 4.7 ENE 7 9 4 5 1012.2 1011.6 0.0
26/03:00am 18.2 17.6 7.3 49 5.6 CALM 0 7 0 4 1012.4 1011.8 0.0
26/02:30am 18.0 13.1 8.6 54 4.9 SW 24 32 13 17 1012.8 1012.3 0.0
26/02:00am 19.1 16.5 7.8 48 5.9 N 11 13 6 7 1012.4 1011.8 0.0
26/01:30am 18.6 16.5 8.3 51 5.4 NE 9 11 5 6 1012.7 1012.2 0.0
26/01:00am 20.2 16.9 7.9 45 6.5 NNE 15 19 8 10 1013.3 1012.8 0.0
26/12:30am 19.3 17.7 8.6 50 5.7 NNE 7 9 4 5 1013.4 1012.9 0.0
26/12:00am 20.0 18.5 9.0 49 5.9 NNE 7 11 4 6 1013.5 1013.0 0.0
 
Date/Time
EDT
Temp
°C
App
Temp
°C
Dew
Point
Rel
Hum
%
Delta-T
°C
Wind Press
QNH
hPa
Press
MSL
hPa
Rain
since 9 am
mm
Dir
 
Spd
km/h
Gust
km/h
Spd
kts
Gust
kts
25/11:30pm 20.2 18.4 9.5 50 5.8 NNE 9 13 5 7 1013.6 1013.1 0.0
25/11:00pm 21.9 20.4 9.1 44 6.9 N 7 9 4 5 1013.6 1013.1 0.0
25/10:30pm 23.6 21.0 7.7 36 8.5 E 11 15 6 8 1013.8 1013.3 0.0
25/10:00pm 23.8 21.0 8.6 38 8.2 ENE 13 17 7 9 1014.1 1013.5 0.0
25/09:30pm 24.2 20.8 9.0 38 8.3 NE 17 19 9 10 1014.2 1013.6 0.0
25/09:00pm 25.9 25.2 8.4 33 9.6 S 2 9 1 5 1014.6 1014.0 0.0
25/08:30pm 28.1 24.4 6.2 25 11.7 W 15 17 8 9 1014.8 1014.2 0.0
25/08:19pm 29.6 23.9 6.9 24 12.3 SSW 26 32 14 17 1014.4 1013.8 0.0
25/08:00pm 24.5 23.4 8.5 36 8.7 NE 4 7 2 4 1013.7 1013.2 0.0
25/07:30pm 24.8 21.6 7.0 32 9.4 NNE 13 17 7 9 1012.5 1011.9 0.0
25/07:00pm 27.7 24.4 6.5 26 11.3 NNE 13 19 7 10 1012.3 1011.7 0.0
25/06:30pm 30.9 26.8 6.0 21 13.4 N 17 20 9 11 1012.5 1011.9 0.0
25/06:00pm 31.2 25.5 4.9 19 14.0 NNW 24 39 13 21 1012.8 1012.3 0.0
25/05:37pm 32.0 25.5 4.7 18 14.5 NW 28 52 15 28 1012.6 1012.1 0.0
25/05:30pm 32.2 31.8 8.4 23 13.4 CALM 0 9 0 5 1012.3 1011.7 0.0
25/05:00pm 34.1 32.0 1.8 13 16.6 S 2 9 1 5 1012.2 1011.6 0.0
25/04:30pm 35.2 31.7 1.5 12 17.3 N 9 17 5 9 1012.4 1011.8 0.0
25/04:00pm 35.1 32.0 3.6 14 16.7 SSW 9 15 5 8 1012.9 1012.4 0.0
25/03:30pm 35.0 32.3 5.4 16 16.2 W 9 17 5 9 1013.2 1012.7 0.0
25/03:00pm 35.0 31.9 1.4 12 17.2 W 7 17 4 9 1013.5 1013.0 0.0
25/02:30pm 34.1 29.5 1.8 13 16.6 WSW 15 22 8 12 1014.2 1013.6 0.0
25/02:00pm 34.0 29.1 1.7 13 16.5 WSW 17 24 9 13 1014.6 1014.0 0.0
25/01:30pm 34.5 31.5 5.9 17 15.7 SSW 11 22 6 12 1014.7 1014.1 0.0
25/01:00pm 33.6 29.5 2.4 14 16.1 SSW 13 20 7 11 1015.2 1014.6 0.0
25/12:30pm 33.6 30.8 3.4 15 15.8 NNW 7 13 4 7 1015.7 1015.2 0.0
25/12:00pm 33.0 30.1 4.7 17 15.1 N 9 15 5 8 1016.1 1015.6 0.0
25/11:30am 33.0 30.3 5.5 18 14.9 N 9 17 5 9 1016.7 1016.2 0.0
25/11:00am 31.3 28.4 4.9 19 14.0 NNE 9 13 5 7 1016.9 1016.4 0.0
25/10:30am 30.7 28.0 3.7 18 14.0 E 7 17 4 9 1017.3 1016.7 0.0
25/10:00am 29.6 26.4 6.9 24 12.3 E 13 20 7 11 1017.5 1016.9 0.0
25/09:30am 28.3 26.0 7.5 27 11.3 ENE 9 13 5 7 1017.6 1017.0 0.0
25/09:00am 26.4 24.3 8.4 32 9.9 ENE 9 11 5 6 1017.6 1017.0 0.0
25/08:30am 22.3 21.2 9.8 45 6.9 NE 6 7 3 4 1017.9 1017.3 0.0
25/08:00am 18.6 18.5 9.4 55 4.9 CALM 0 6 0 3 1017.7 1017.1 0.0
25/07:30am 15.8 14.3 8.5 62 3.8 NE 6 7 3 4 1017.1 1016.6 0.0
25/07:00am 12.8 10.3 8.3 74 2.3 ENE 11 13 6 7 1016.9 1016.4 0.0
25/06:30am 9.6 7.6 7.0 84 1.2 NE 7 9 4 5 1016.8 1016.3 0.0
25/06:00am 9.9 7.5 7.2 83 1.3 ENE 9 11 5 6 1016.3 1015.8 0.0
25/05:30am 11.3 8.1 6.8 74 2.2 ENE 13 13 7 7 1016.2 1015.7 0.0
25/05:00am 11.6 9.4 7.7 77 1.9 ENE 9 11 5 6 1016.2 1015.7 0.0
25/04:30am 10.9 9.0 7.6 80 1.6 NE 7 9 4 5 1015.8 1015.3 0.0
25/04:00am 11.0 8.8 7.9 81 1.5 NE 9 11 5 6 1015.6 1015.1 0.0
25/03:30am 12.4 10.3 8.1 75 2.2 NE 9 13 5 7 1015.7 1015.2 0.0
25/03:00am 12.3 9.7 7.6 73 2.3 ENE 11 13 6 7 1015.6 1015.1 0.0
25/02:30am 13.9 10.4 7.4 65 3.2 E 15 15 8 8 1015.8 1015.3 0.0
25/02:00am 13.4 11.6 8.0 70 2.7 ENE 7 9 4 5 1016.1 1015.6 0.0
25/01:30am 13.2 11.6 8.1 71 2.6 SSW 6 7 3 4 1016.1 1015.6 0.0
25/01:00am 14.4 13.8 7.5 63 3.5 CALM 0 0 0 0 1016.1 1015.6 0.0
25/12:30am 16.1 15.7 8.1 59 4.1 CALM 0 0 0 0 1016.3 1015.8 0.0
25/12:00am 18.6 18.0 7.4 48 5.8 CALM 0 0 0 0 1016.1 1015.6 0.0
 
Date/Time
EDT
Temp
°C
App
Temp
°C
Dew
Point
Rel
Hum
%
Delta-T
°C
Wind Press
QNH
hPa
Press
MSL
hPa
Rain
since 9 am
mm
Dir
 
Spd
km/h
Gust
km/h
Spd
kts
Gust
kts
24/11:30pm 19.9 18.1 7.3 44 6.5 SSW 6 9 3 5 1016.0 1015.5 0.0
24/11:00pm 20.7 18.5 7.7 43 6.8 SSW 9 11 5 6 1015.8 1015.3 0.0
24/10:30pm 21.6 19.2 7.1 39 7.6 SSW 9 11 5 6 1015.6 1015.1 0.0
24/10:00pm 22.9 20.1 7.0 36 8.3 SSW 11 13 6 7 1015.4 1014.9 0.0
24/09:30pm 24.3 21.1 7.0 33 9.2 SW 13 17 7 9 1015.1 1014.5 0.0
24/09:00pm 23.3 23.0 8.6 39 8.0 CALM 0 0 0 0 1014.5 1013.9 0.0
24/08:30pm 25.2 24.6 7.3 32 9.6 CALM 0 0 0 0 1013.9 1013.4 0.0
24/08:00pm 27.2 23.7 5.5 25 11.4 W 13 15 7 8 1013.5 1013.0 0.0
24/07:30pm 29.9 24.8 3.0 18 13.7 WSW 19 24 10 13 1013.0 1012.5 0.0
24/07:00pm 31.1 25.7 2.3 16 14.6 WSW 20 26 11 14 1012.5 1011.9 0.0
24/06:30pm 32.5 25.3 0.6 13 15.9 WSW 28 41 15 22 1012.0 1011.4 0.0
24/06:18pm 32.9 25.4 -1.4 11 16.6 WSW 28 46 15 25 1011.8 1011.2 0.0
24/06:00pm 32.7 26.1 -0.4 12 16.2 WSW 24 35 13 19 1011.6 1011.0 0.0
24/05:30pm 33.4 28.0 2.3 14 16.0 NW 20 50 11 27 1011.1 1010.5 0.0
24/05:00pm 34.1 29.5 5.6 17 15.6 NW 19 28 10 15 1011.0 1010.4 0.0
24/04:30pm 34.9 30.4 4.4 15 16.4 NW 17 24 9 13 1011.3 1010.7 0.0
24/04:00pm 34.7 29.1 3.3 14 16.6 NW 22 35 12 19 1011.7 1011.1 0.0
24/03:30pm 34.5 28.8 5.0 16 16.0 WNW 24 35 13 19 1012.2 1011.6 0.0
24/03:00pm 35.2 28.9 5.6 16 16.2 WNW 28 41 15 22 1012.6 1012.1 0.0
24/02:35pm 34.5 27.7 7.5 19 15.2 NNW 33 52 18 28 1012.8 1012.3 0.0
24/02:30pm 35.1 28.2 7.2 18 15.7 NNW 33 48 18 26 1013.0 1012.5 0.0
24/02:00pm 35.2 29.1 8.1 19 15.4 NNW 30 44 16 24 1013.4 1012.9 0.0
24/01:30pm 34.0 27.1 7.1 19 15.0 N 33 57 18 31 1013.8 1013.3 0.0
24/01:08pm 33.5 26.3 7.5 20 14.6 N 35 54 19 29 1013.7 1013.2 0.0
24/01:00pm 33.4 26.1 7.4 20 14.5 N 35 48 19 26 1014.2 1013.6 0.0
24/12:30pm 33.4 27.0 9.4 23 13.8 N 33 52 18 28 1014.8 1014.2 0.0
24/12:08pm 32.9 26.4 9.0 23 13.7 N 33 54 18 29 1015.2 1014.6 0.0
24/12:00pm 32.4 25.6 9.2 24 13.3 N 35 50 19 27 1015.3 1014.8 0.0
24/11:48am 32.3 25.9 8.5 23 13.5 N 32 52 17 28 1015.5 1015.0 0.0
24/11:30am 31.1 24.7 9.3 26 12.4 N 33 48 18 26 1015.7 1015.2 0.0
24/11:00am 30.4 24.1 9.8 28 11.8 N 33 46 18 25 1016.3 1015.8 0.0
24/10:30am 29.2 22.0 9.3 29 11.2 N 37 54 20 29 1016.8 1016.3 0.0
24/10:20am 29.4 23.9 10.5 31 10.9 NNE 30 48 16 26 1016.9 1016.4 0.0
24/10:00am 27.3 20.6 10.9 36 9.4 NNE 37 50 20 27 1017.3 1016.7 0.0
24/09:30am 26.8 21.3 11.7 39 8.8 NNE 32 46 17 25 1017.6 1017.0 0.0
24/09:00am 24.7 18.9 10.9 42 7.8 NNE 32 44 17 24 1017.7 1017.1 0.0
24/08:30am 23.4 18.4 10.8 45 7.1 NNE 28 43 15 23 1018.1 1017.6 0.0
24/08:18am 23.3 17.9 11.0 46 6.9 NNE 30 48 16 26 1018.1 1017.6 0.0
24/08:00am 22.8 17.0 10.9 47 6.7 NNE 32 43 17 23 1018.0 1017.5 0.0
24/07:30am 21.6 17.0 11.0 51 5.9 NNE 26 37 14 20 1018.0 1017.5 0.0
24/07:00am 21.3 18.3 10.8 51 5.8 NE 17 22 9 12 1018.0 1017.5 0.0
24/06:30am 21.5 17.5 10.3 49 6.2 NE 22 32 12 17 1017.6 1017.0 0.0
24/06:00am 22.2 17.7 10.0 46 6.7 NE 24 33 13 18 1016.9 1016.4 0.0
24/05:30am 22.7 17.4 9.8 44 7.1 NE 28 37 15 20 1016.6 1016.1 0.0
24/05:00am 23.2 17.4 9.6 42 7.5 NE 30 44 16 24 1016.5 1016.0 0.0
24/04:30am 23.2 18.7 9.9 43 7.4 NNE 24 32 13 17 1016.9 1016.4 0.0
24/04:00am 21.8 19.1 10.3 48 6.4 N 15 24 8 13 1016.9 1016.4 0.0
24/03:30am 21.5 18.4 10.3 49 6.2 N 17 20 9 11 1017.6 1017.0 0.0
24/03:00am 23.5 19.5 9.1 40 7.9 NNE 20 32 11 17 1017.0 1016.5 0.0
24/02:30am 23.1 18.7 9.1 41 7.6 NE 22 32 12 17 1016.7 1016.2 0.0
24/02:00am 23.6 18.4 8.8 39 8.0 NE 26 39 14 21 1016.9 1016.4 0.0
24/01:30am 23.0 17.5 9.0 41 7.6 NE 28 41 15 22 1016.7 1016.2 0.0
24/01:00am 22.7 16.9 9.5 43 7.2 ENE 30 37 16 20 1017.0 1016.5 0.0
24/12:30am 24.3 19.6 7.9 35 8.8 E 22 35 12 19 1018.3 1017.8 0.0
24/12:00am 24.4 17.7 8.0 35 8.8 ENE 33 44 18 24 1017.6 1017.0 0.0
 
Date/Time
EDT
Temp
°C
App
Temp
°C
Dew
Point
Rel
Hum
%
Delta-T
°C
Wind Press
QNH
hPa
Press
MSL
hPa
Rain
since 9 am
mm
Dir
 
Spd
km/h
Gust
km/h
Spd
kts
Gust
kts
23/11:30pm 24.3 19.5 8.7 37 8.5 ENE 24 35 13 19 1017.7 1017.1 0.0
23/11:00pm 20.2 18.9 10.0 52 5.6 NE 7 11 4 6 1017.5 1016.9 0.0
23/10:30pm 20.5 18.8 10.0 51 5.7 NE 9 11 5 6 1017.1 1016.6 0.0
23/10:00pm 21.1 19.1 10.3 50 5.9 ENE 11 15 6 8 1017.3 1016.7 0.0
23/09:30pm 19.9 17.5 10.0 53 5.4 ENE 13 15 7 8 1017.1 1016.6 0.0
23/09:00pm 19.5 17.2 9.1 51 5.6 NE 11 13 6 7 1016.8 1016.3 0.0
23/08:30pm 18.9 16.3 9.4 54 5.1 E 13 15 7 8 1016.5 1016.0 0.0
23/08:00pm 21.2 18.6 9.4 47 6.4 E 13 15 7 8 1016.1 1015.6 0.0
23/07:30pm 22.8 20.3 9.6 43 7.3 E 13 15 7 8 1015.8 1015.3 0.0
23/07:00pm 26.5 23.8 8.9 33 9.7 E 13 17 7 9 1015.6 1015.1 0.0
23/06:30pm 29.3 27.2 8.4 27 11.6 E 9 11 5 6 1015.4 1014.9 0.0
23/06:00pm 31.1 29.2 6.9 22 13.3 E 6 11 3 6 1015.2 1014.6 0.0

Other Formats:

Comma delimited format used in spreadsheet applications
http://www.bom.gov.au/fwo/IDN60801/IDN60801.95717.axf

JavaScript Object Notation format (JSON) in row-major order
http://www.bom.gov.au/fwo/IDN60801/IDN60801.95717.json